Time;durP1;ratioP1;P1;durP2;ratioP2;P2;SDS_P1;SDS_P2;PMS_P1;PMS_P2;Temp;Humidity;BMP_temperature;BMP_pressure;BME280_temperature;BME280_humidity;BME280_pressure;Samples;Min_cycle;Max_cycle;Signal;HPM_P1;HPM_P2
2023/06/02 00:01:00;;;;;;;7.75;2.45;;;13.90;99.90;;;;;;5031040;28;20177;-62
2023/06/02 00:03:30;;;;;;;6.53;2.03;;;13.90;99.90;;;;;;5031006;28;20162;-61
2023/06/02 00:05:57;;;;;;;7.30;2.15;;;13.80;99.90;;;;;;5030936;28;20178;-61
2023/06/02 00:08:23;;;;;;;6.50;2.15;;;13.80;99.90;;;;;;5030692;28;20212;-60
2023/06/02 00:10:49;;;;;;;5.95;2.35;;;13.80;99.90;;;;;;5031019;28;20170;-62
2023/06/02 00:13:15;;;;;;;9.00;1.98;;;13.80;99.90;;;;;;5021847;28;20660;-61
2023/06/02 00:15:40;;;;;;;7.75;1.88;;;13.80;99.90;;;;;;5031024;28;20174;-61
2023/06/02 00:18:07;;;;;;;4.95;1.60;;;13.80;99.90;;;;;;5030825;28;20546;-61
2023/06/02 00:20:33;;;;;;;7.07;2.30;;;13.70;99.90;;;;;;5030811;28;20176;-61
2023/06/02 00:23:01;;;;;;;4.40;1.75;;;13.70;99.90;;;;;;5035517;28;20173;-61
2023/06/02 00:25:28;;;;;;;7.20;2.05;;;13.80;99.90;;;;;;5050752;28;20641;-60
2023/06/02 00:27:53;;;;;;;5.70;1.67;;;13.80;99.90;;;;;;5028235;28;20202;-59
2023/06/02 00:30:19;;;;;;;7.30;1.88;;;13.70;99.90;;;;;;5034819;28;20182;-60
2023/06/02 00:32:45;;;;;;;9.35;2.13;;;13.60;99.90;;;;;;5034604;28;20510;-60
2023/06/02 00:35:10;;;;;;;5.35;1.98;;;13.70;99.90;;;;;;5034660;28;20638;-60
2023/06/02 00:37:36;;;;;;;5.57;1.88;;;13.80;99.90;;;;;;5034103;28;20162;-60
2023/06/02 00:40:02;;;;;;;4.57;1.80;;;13.70;99.90;;;;;;5034734;28;20195;-60
2023/06/02 00:42:28;;;;;;;4.97;1.80;;;13.70;99.90;;;;;;5017089;28;20232;-63
2023/06/02 00:44:53;;;;;;;6.22;2.08;;;13.70;99.90;;;;;;5014846;28;20174;-61
2023/06/02 00:47:19;;;;;;;6.13;1.88;;;13.70;99.90;;;;;;5020635;28;20519;-59
2023/06/02 00:49:45;;;;;;;5.18;1.73;;;13.60;99.90;;;;;;5024839;28;20257;-59
2023/06/02 00:52:12;;;;;;;4.57;1.98;;;13.70;99.90;;;;;;5031523;28;20604;-60
2023/06/02 00:54:37;;;;;;;6.13;1.65;;;13.60;99.90;;;;;;5034134;28;20170;-60
2023/06/02 00:57:03;;;;;;;7.68;1.67;;;13.60;99.90;;;;;;5034074;28;20255;-60
2023/06/02 00:59:29;;;;;;;4.13;1.50;;;13.60;99.90;;;;;;5034028;28;20272;-60
2023/06/02 01:01:55;;;;;;;7.03;1.95;;;13.60;99.90;;;;;;5033477;28;20186;-60
2023/06/02 01:04:21;;;;;;;8.02;1.65;;;13.60;99.90;;;;;;5019987;28;20257;-59
2023/06/02 01:06:48;;;;;;;8.38;1.77;;;13.50;99.90;;;;;;5017135;28;20232;-59
2023/06/02 01:09:18;;;;;;;5.53;1.40;;;13.50;99.90;;;;;;5034192;28;20189;-59
2023/06/02 01:11:45;;;;;;;7.38;1.70;;;13.50;99.90;;;;;;5033993;28;20190;-63
2023/06/02 01:14:10;;;;;;;4.97;1.45;;;13.40;99.90;;;;;;5033864;28;20166;-63
2023/06/02 01:16:38;;;;;;;4.97;1.25;;;13.40;99.90;;;;;;5034080;28;20308;-63
2023/06/02 01:19:06;;;;;;;5.97;1.70;;;13.40;99.90;;;;;;5033862;28;20638;-61
2023/06/02 01:21:37;;;;;;;7.10;2.08;;;13.40;99.90;;;;;;5033929;28;20185;-60
2023/06/02 01:24:03;;;;;;;4.00;1.40;;;13.30;99.90;;;;;;5033666;28;20678;-60
2023/06/02 01:26:34;;;;;;;7.70;1.70;;;13.30;99.90;;;;;;5033796;28;20208;-61
2023/06/02 01:29:00;;;;;;;5.72;1.73;;;13.20;99.90;;;;;;5033589;28;20682;-60
2023/06/02 01:31:29;;;;;;;7.82;1.58;;;13.20;99.90;;;;;;5033624;28;20166;-61
2023/06/02 01:34:05;;;;;;;7.13;1.85;;;13.20;99.90;;;;;;5033535;28;20233;-61
2023/06/02 01:36:35;;;;;;;8.63;1.88;;;13.20;99.90;;;;;;5033505;28;20161;-61
2023/06/02 01:39:01;;;;;;;4.18;1.80;;;13.00;99.90;;;;;;5033203;28;20173;-61
2023/06/02 01:41:27;;;;;;;5.03;1.77;;;13.10;99.90;;;;;;5033342;28;20178;-61
2023/06/02 01:43:55;;;;;;;9.90;1.60;;;13.00;99.90;;;;;;5033294;28;20596;-61
2023/06/02 01:46:25;;;;;;;6.27;2.07;;;13.00;99.90;;;;;;5033275;28;20174;-60
2023/06/02 01:48:55;;;;;;;11.30;1.77;;;13.00;99.90;;;;;;5033213;28;20232;-61
2023/06/02 01:51:21;;;;;;;4.80;1.60;;;13.20;99.90;;;;;;5033365;28;20170;-61
2023/06/02 01:53:46;;;;;;;4.80;1.67;;;13.00;99.90;;;;;;5033211;28;20185;-61
2023/06/02 01:56:12;;;;;;;8.80;1.93;;;12.90;99.90;;;;;;5033142;28;20642;-61
2023/06/02 01:58:38;;;;;;;5.50;1.83;;;13.00;99.90;;;;;;5033059;28;20174;-61
2023/06/02 02:01:04;;;;;;;6.60;1.95;;;13.10;99.90;;;;;;5033266;28;20201;-60
2023/06/02 02:03:30;;;;;;;5.77;1.50;;;13.00;99.90;;;;;;5015095;28;20178;-61
2023/06/02 02:05:56;;;;;;;5.13;1.67;;;13.10;99.90;;;;;;5031415;28;20183;-61
2023/06/02 02:08:22;;;;;;;6.83;1.87;;;13.00;99.90;;;;;;5030228;28;20218;-61
2023/06/02 02:10:48;;;;;;;5.78;1.80;;;13.10;99.90;;;;;;5032991;28;20180;-61
2023/06/02 02:13:14;;;;;;;6.72;1.70;;;13.10;99.90;;;;;;5032361;28;20182;-61
2023/06/02 02:15:39;;;;;;;3.15;1.20;;;13.00;99.90;;;;;;5032811;28;20186;-61
2023/06/02 02:18:06;;;;;;;6.80;1.20;;;;;;;;;;5017078;28;20705;-60
2023/06/02 02:20:32;;;;;;;6.22;2.15;;;13.00;99.90;;;;;;5021415;28;20244;-60
2023/06/02 02:22:58;;;;;;;7.13;1.50;;;13.00;99.90;;;;;;5032716;28;20253;-61
2023/06/02 02:25:24;;;;;;;5.90;1.50;;;12.90;99.90;;;;;;5021756;28;20685;-61
2023/06/02 02:27:49;;;;;;;7.60;1.60;;;12.90;99.90;;;;;;4995035;28;20206;-60
2023/06/02 02:30:15;;;;;;;4.97;1.80;;;12.80;99.90;;;;;;5012826;28;20175;-61
2023/06/02 02:32:43;;;;;;;4.80;1.60;;;12.80;99.90;;;;;;5012619;28;20269;-62
2023/06/02 02:35:10;;;;;;;4.27;1.50;;;12.90;99.90;;;;;;5012807;28;20178;-62
2023/06/02 02:37:36;;;;;;;5.47;1.73;;;12.80;99.90;;;;;;5023647;28;20257;-61
2023/06/02 02:40:03;;;;;;;4.55;1.67;;;12.80;99.90;;;;;;5032367;28;20197;-61
2023/06/02 02:42:29;;;;;;;3.40;1.35;;;12.90;99.90;;;;;;5032183;28;20190;-62
2023/06/02 02:44:54;;;;;;;2.55;1.48;;;12.90;99.90;;;;;;5032564;28;20209;-62
2023/06/02 02:47:20;;;;;;;4.45;1.40;;;12.80;99.90;;;;;;5032186;28;20205;-62
2023/06/02 02:49:46;;;;;;;6.93;1.60;;;12.90;99.90;;;;;;5031293;28;20178;-62
2023/06/02 02:52:12;;;;;;;3.47;1.40;;;13.00;99.90;;;;;;5030872;28;20239;-62
2023/06/02 02:54:38;;;;;;;8.17;1.40;;;12.80;99.90;;;;;;5003158;28;20592;-62
2023/06/02 02:57:07;;;;;;;4.00;1.30;;;12.90;99.90;;;;;;4999862;28;20224;-61
2023/06/02 02:59:35;;;;;;;5.03;1.67;;;12.80;99.90;;;;;;5031786;28;20174;-62
2023/06/02 03:02:01;;;;;;;3.55;1.50;;;12.70;99.90;;;;;;5031453;28;20189;-61
2023/06/02 03:04:27;;;;;;;6.45;1.40;;;12.80;99.90;;;;;;5031998;28;20209;-63
2023/06/02 03:06:54;;;;;;;5.07;1.60;;;12.80;99.90;;;;;;5031384;28;20648;-61
2023/06/02 03:09:20;;;;;;;3.30;1.57;;;12.70;99.90;;;;;;5029768;28;20174;-62
2023/06/02 03:11:46;;;;;;;5.05;1.40;;;12.70;99.90;;;;;;5031493;28;20182;-61
2023/06/02 03:14:12;;;;;;;4.20;1.40;;;12.60;99.90;;;;;;5031365;28;20188;-61
2023/06/02 03:16:41;;;;;;;2.45;1.13;;;12.70;99.90;;;;;;5031209;28;20642;-61
2023/06/02 03:19:08;;;;;;;3.50;1.40;;;12.60;99.90;;;;;;5031495;28;20182;-61
2023/06/02 03:21:41;;;;;;;6.67;1.27;;;12.70;99.90;;;;;;5029986;28;20638;-62
2023/06/02 03:24:14;;;;;;;3.27;1.40;;;12.70;99.90;;;;;;5028434;28;20252;-61
2023/06/02 03:26:40;;;;;;;3.50;1.50;;;12.70;99.90;;;;;;5014819;28;20254;-61
2023/06/02 03:29:07;;;;;;;3.72;1.23;;;12.70;99.90;;;;;;5031032;28;20224;-61
2023/06/02 03:31:33;;;;;;;4.20;1.20;;;12.70;99.90;;;;;;5022499;28;20166;-60
2023/06/02 03:33:59;;;;;;;4.80;1.23;;;13.80;99.90;;;;;;5011382;28;20606;-60
2023/06/02 03:36:25;;;;;;;3.90;1.00;;;12.70;99.90;;;;;;5011338;28;20183;-60
2023/06/02 03:38:51;;;;;;;3.17;1.10;;;12.60;99.90;;;;;;5019723;28;20176;-61
2023/06/02 03:41:17;;;;;;;4.23;1.30;;;12.60;99.90;;;;;;5031235;28;20181;-61
2023/06/02 03:43:42;;;;;;;3.78;1.55;;;12.70;99.90;;;;;;5031157;28;20542;-60
2023/06/02 03:46:08;;;;;;;3.37;1.13;;;12.70;99.90;;;;;;5030679;28;20209;-60
2023/06/02 03:48:34;;;;;;;3.00;1.13;;;12.60;99.90;;;;;;5029318;28;20221;-61
2023/06/02 03:51:00;;;;;;;4.80;1.10;;;;;;;;;;5031244;28;20184;-60
2023/06/02 03:53:25;;;;;;;4.25;1.42;;;12.70;99.90;;;;;;5029495;28;20534;-61
2023/06/02 03:55:51;;;;;;;2.27;1.00;;;12.70;99.90;;;;;;5019837;28;20170;-61
2023/06/02 03:58:17;;;;;;;3.78;1.30;;;12.70;99.90;;;;;;5031209;28;20177;-60
2023/06/02 04:00:44;;;;;;;3.25;1.40;;;12.70;99.90;;;;;;5019587;28;20173;-61
2023/06/02 04:03:11;;;;;;;4.20;1.42;;;12.70;99.90;;;;;;5011297;28;20677;-61
2023/06/02 04:05:37;;;;;;;3.03;1.10;;;12.70;99.90;;;;;;5011357;28;20174;-62
2023/06/02 04:08:03;;;;;;;2.80;1.30;;;12.60;99.90;;;;;;5011239;28;20525;-61
2023/06/02 04:10:30;;;;;;;4.30;1.23;;;12.70;99.90;;;;;;5011301;28;20211;-62
2023/06/02 04:12:56;;;;;;;3.83;1.10;;;12.60;99.90;;;;;;5022823;28;20173;-61
2023/06/02 04:15:21;;;;;;;5.82;1.35;;;12.60;99.90;;;;;;5031010;28;20170;-61
2023/06/02 04:17:47;;;;;;;3.60;0.90;;;12.50;99.90;;;;;;5031061;28;20230;-62
2023/06/02 04:20:13;;;;;;;3.83;1.00;;;12.50;99.90;;;;;;5030819;28;20639;-59
2023/06/02 04:22:38;;;;;;;8.50;1.40;;;12.50;99.90;;;;;;5030951;28;20166;-62
2023/06/02 04:25:05;;;;;;;3.17;1.30;;;12.50;99.90;;;;;;5030901;28;20648;-62
2023/06/02 04:27:30;;;;;;;2.57;1.13;;;12.40;99.90;;;;;;5030714;28;20202;-62
2023/06/02 04:29:56;;;;;;;2.90;1.20;;;12.40;99.90;;;;;;5030835;28;20180;-61
2023/06/02 04:32:22;;;;;;;7.17;1.00;;;12.40;99.90;;;;;;5030647;28;20221;-63
2023/06/02 04:34:49;;;;;;;3.47;1.07;;;12.30;99.90;;;;;;5030712;28;20654;-62
2023/06/02 04:37:15;;;;;;;5.50;0.97;;;12.50;99.90;;;;;;5030744;28;20170;-63
2023/06/02 04:39:41;;;;;;;3.93;1.17;;;12.50;99.90;;;;;;5030789;28;20541;-62
2023/06/02 04:42:07;;;;;;;4.43;0.87;;;12.40;99.90;;;;;;5030815;28;20201;-61
2023/06/02 04:44:34;;;;;;;3.90;0.93;;;12.40;99.90;;;;;;5030641;28;20635;-61
2023/06/02 04:46:59;;;;;;;4.60;1.17;;;12.40;99.90;;;;;;5030601;28;20181;-62
2023/06/02 04:49:26;;;;;;;3.53;1.13;;;12.50;99.90;;;;;;5030517;28;20182;-61
2023/06/02 04:51:52;;;;;;;5.57;1.20;;;12.50;99.90;;;;;;5030608;28;20166;-61
2023/06/02 04:54:17;;;;;;;4.55;1.08;;;12.50;99.90;;;;;;5030679;28;20308;-61
2023/06/02 04:56:43;;;;;;;6.43;1.27;;;12.40;99.90;;;;;;5030441;28;20656;-62
2023/06/02 04:59:09;;;;;;;5.13;1.27;;;12.40;99.90;;;;;;5030484;28;20180;-61
2023/06/02 05:01:34;;;;;;;7.13;1.20;;;12.40;99.90;;;;;;5028956;28;20173;-62
2023/06/02 05:04:00;;;;;;;5.70;1.40;;;12.40;99.90;;;;;;5014185;28;20676;-62
2023/06/02 05:06:26;;;;;;;4.57;1.27;;;12.30;99.90;;;;;;5015642;28;20181;-63
2023/06/02 05:08:51;;;;;;;4.50;1.20;;;12.30;99.90;;;;;;5024758;28;20683;-63
2023/06/02 05:11:17;;;;;;;6.67;1.40;;;12.30;99.90;;;;;;5024270;28;20178;-63
2023/06/02 05:13:44;;;;;;;5.13;1.20;;;12.30;99.90;;;;;;5030039;28;20174;-60
2023/06/02 05:16:10;;;;;;;5.13;1.53;;;12.20;99.90;;;;;;5014196;28;20166;-62
2023/06/02 05:18:36;;;;;;;5.23;1.30;;;12.20;99.90;;;;;;5014149;28;20181;-62
2023/06/02 05:21:02;;;;;;;4.20;1.40;;;;;;;;;;5014119;28;20241;-62
2023/06/02 05:23:27;;;;;;;7.63;1.30;;;12.30;99.90;;;;;;5014145;28;20182;-61
2023/06/02 05:25:53;;;;;;;5.80;1.30;;;12.40;99.90;;;;;;5014392;28;20183;-61
2023/06/02 05:28:19;;;;;;;6.07;1.40;;;12.30;99.90;;;;;;5033777;28;20635;-62
2023/06/02 05:30:44;;;;;;;4.25;1.85;;;12.30;99.90;;;;;;5016026;28;20225;-62
2023/06/02 05:33:10;;;;;;;4.57;1.50;;;12.30;99.90;;;;;;5033624;28;20252;-63
2023/06/02 05:35:36;;;;;;;4.50;1.40;;;12.20;99.90;;;;;;5033671;28;20197;-61
2023/06/02 05:38:01;;;;;;;5.23;1.70;;;12.40;99.90;;;;;;5033607;28;20543;-61
2023/06/02 05:40:27;;;;;;;6.47;1.67;;;12.40;99.90;;;;;;5033504;28;20181;-61
2023/06/02 05:42:52;;;;;;;7.27;1.90;;;12.50;99.90;;;;;;5033350;28;20182;-61
2023/06/02 05:45:18;;;;;;;6.20;1.70;;;12.60;99.90;;;;;;5033394;28;20166;-63
2023/06/02 05:47:44;;;;;;;7.23;1.50;;;12.60;99.90;;;;;;5033265;28;20332;-62
2023/06/02 05:50:11;;;;;;;7.37;1.80;;;12.80;99.90;;;;;;5031348;28;20653;-63
2023/06/02 05:52:36;;;;;;;5.20;1.60;;;12.90;99.90;;;;;;5033026;28;20182;-62
2023/06/02 05:55:02;;;;;;;7.40;1.70;;;12.80;99.90;;;;;;5033075;28;20558;-63
2023/06/02 05:57:28;;;;;;;4.00;1.67;;;12.90;99.90;;;;;;5033141;28;20634;-62
2023/06/02 05:59:53;;;;;;;7.77;1.80;;;12.80;99.90;;;;;;5032917;28;20197;-62
2023/06/02 06:02:19;;;;;;;6.57;1.83;;;12.80;99.90;;;;;;5032856;28;20265;-62
2023/06/02 06:04:45;;;;;;;5.60;1.77;;;12.80;99.90;;;;;;5032917;28;20192;-62
2023/06/02 06:07:10;;;;;;;8.27;2.00;;;12.90;99.90;;;;;;5032618;28;20231;-62
2023/06/02 06:09:36;;;;;;;6.20;1.70;;;12.90;99.90;;;;;;5024331;28;20261;-61
2023/06/02 06:12:02;;;;;;;6.38;1.50;;;;;;;;;;5025568;28;20170;-62
2023/06/02 06:14:28;;;;;;;6.72;1.65;;;12.90;99.90;;;;;;5020513;28;20686;-61
2023/06/02 06:16:53;;;;;;;6.85;2.10;;;12.90;99.90;;;;;;5029820;28;20174;-62
2023/06/02 06:19:19;;;;;;;4.33;1.77;;;13.00;99.90;;;;;;5003709;28;20541;-62
2023/06/02 06:21:45;;;;;;;6.55;1.90;;;12.90;99.90;;;;;;5032731;28;20249;-62
2023/06/02 06:24:11;;;;;;;6.95;2.03;;;13.20;99.90;;;;;;5020868;28;20174;-63
2023/06/02 06:26:36;;;;;;;7.75;2.17;;;13.10;99.90;;;;;;5011658;28;20179;-61
2023/06/02 06:29:03;;;;;;;10.10;2.20;;;13.00;99.90;;;;;;5012718;28;20235;-61
2023/06/02 06:31:29;;;;;;;9.70;1.85;;;13.00;99.90;;;;;;5012653;28;20253;-61
2023/06/02 06:33:55;;;;;;;9.90;2.35;;;13.10;99.90;;;;;;5022299;28;20303;-61
2023/06/02 06:36:20;;;;;;;10.55;2.25;;;13.10;99.90;;;;;;5032175;28;20172;-61
2023/06/02 06:38:46;;;;;;;7.97;1.95;;;13.10;99.90;;;;;;5032330;28;20165;-61
2023/06/02 06:41:11;;;;;;;10.18;2.08;;;13.30;99.90;;;;;;5032319;28;20573;-60
2023/06/02 06:43:38;;;;;;;5.18;1.85;;;13.40;99.90;;;;;;5030476;28;20189;-61
2023/06/02 06:46:04;;;;;;;8.30;1.80;;;13.50;99.90;;;;;;5024681;28;20182;-65
2023/06/02 06:48:30;;;;;;;9.48;1.95;;;13.30;99.90;;;;;;5026790;28;20268;-68
2023/06/02 06:50:56;;;;;;;9.82;1.73;;;13.40;99.90;;;;;;5014948;28;20166;-72
2023/06/02 06:53:21;;;;;;;8.95;2.00;;;13.40;99.90;;;;;;5032485;28;20196;-72
2023/06/02 06:55:47;;;;;;;5.95;1.70;;;13.50;99.90;;;;;;5032173;28;20170;-70
2023/06/02 06:58:13;;;;;;;4.97;1.58;;;13.50;99.90;;;;;;5031778;28;20571;-70
2023/06/02 07:00:39;;;;;;;7.78;2.00;;;13.60;99.90;;;;;;5032118;28;20178;-69
2023/06/02 07:03:05;;;;;;;5.97;1.70;;;13.50;99.90;;;;;;5032161;28;20261;-70
2023/06/02 07:05:30;;;;;;;8.40;1.52;;;13.60;99.90;;;;;;5032042;28;20276;-71
2023/06/02 07:07:57;;;;;;;8.18;1.90;;;13.60;99.90;;;;;;5027232;28;20210;-70
2023/06/02 07:10:22;;;;;;;10.20;1.95;;;13.60;99.90;;;;;;5013019;28;20178;-70
2023/06/02 07:12:48;;;;;;;6.93;2.03;;;13.50;99.90;;;;;;5031872;28;20626;-69
2023/06/02 07:15:14;;;;;;;7.72;2.13;;;;;;;;;;5034605;28;20545;-71
2023/06/02 07:17:43;;;;;;;10.43;2.30;;;13.70;99.90;;;;;;5017753;28;20179;-72
2023/06/02 07:20:10;;;;;;;5.38;1.58;;;14.00;99.90;;;;;;5012272;28;20175;-71
2023/06/02 07:22:36;;;;;;;6.95;2.00;;;13.90;99.90;;;;;;5012028;28;20269;-70
2023/06/02 07:25:03;;;;;;;8.25;2.00;;;13.90;99.90;;;;;;5015809;28;20174;-70
2023/06/02 07:27:29;;;;;;;8.90;2.10;;;13.80;99.90;;;;;;5031405;28;20648;-69
2023/06/02 07:29:55;;;;;;;7.15;2.28;;;13.70;99.90;;;;;;5031257;28;20646;-69
2023/06/02 07:32:21;;;;;;;14.82;2.00;;;13.60;99.90;;;;;;5031385;28;20213;-70
2023/06/02 07:34:47;;;;;;;9.27;2.10;;;13.60;99.90;;;;;;5031162;28;20181;-67
2023/06/02 07:37:13;;;;;;;9.25;2.20;;;13.70;99.90;;;;;;5031310;28;20178;-66
2023/06/02 07:39:39;;;;;;;7.22;1.83;;;13.90;99.90;;;;;;5031286;28;20265;-66
2023/06/02 07:42:05;;;;;;;9.77;1.92;;;13.90;99.90;;;;;;5029980;28;20541;-66
2023/06/02 07:44:30;;;;;;;8.18;2.25;;;14.00;99.90;;;;;;5033724;28;20220;-68
2023/06/02 07:46:56;;;;;;;16.58;2.40;;;14.00;99.90;;;;;;5031225;28;20582;-66
2023/06/02 07:49:22;;;;;;;11.77;2.45;;;14.10;99.90;;;;;;5016633;28;20717;-67
2023/06/02 07:51:47;;;;;;;8.57;2.05;;;14.50;99.90;;;;;;5010371;28;20177;-66
2023/06/02 07:54:13;;;;;;;11.15;2.65;;;14.60;99.90;;;;;;5011523;28;20182;-67
2023/06/02 07:56:39;;;;;;;6.40;2.15;;;14.80;99.90;;;;;;5011506;28;20661;-67
2023/06/02 07:59:04;;;;;;;20.77;2.60;;;15.00;99.90;;;;;;5011252;28;20167;-67
2023/06/02 08:01:30;;;;;;;17.48;2.42;;;15.00;99.90;;;;;;5011580;28;20535;-67
2023/06/02 08:03:56;;;;;;;12.45;2.20;;;15.10;99.90;;;;;;5011264;28;20181;-67
2023/06/02 08:06:21;;;;;;;11.48;2.50;;;14.90;99.90;;;;;;5011086;28;20558;-68
2023/06/02 08:08:47;;;;;;;15.82;2.80;;;14.80;99.90;;;;;;5011294;28;20249;-69
2023/06/02 08:11:13;;;;;;;9.70;2.50;;;14.80;99.90;;;;;;5011628;28;20643;-68
2023/06/02 08:13:39;;;;;;;8.02;2.10;;;15.10;99.90;;;;;;5030791;28;20184;-66
2023/06/02 08:16:05;;;;;;;13.27;3.05;;;15.20;99.90;;;;;;5030938;28;20605;-66
2023/06/02 08:18:31;;;;;;;10.35;2.92;;;15.30;99.90;;;;;;5027155;28;20197;-64
2023/06/02 08:20:57;;;;;;;10.07;2.22;;;15.40;99.90;;;;;;5011767;28;20201;-64
2023/06/02 08:23:23;;;;;;;14.05;2.55;;;15.60;99.90;;;;;;5030044;28;20184;-64
2023/06/02 08:25:48;;;;;;;23.80;3.10;;;15.50;99.90;;;;;;5030802;28;20249;-63
2023/06/02 08:28:14;;;;;;;9.30;2.65;;;15.60;99.90;;;;;;5030658;28;20244;-64
2023/06/02 08:30:44;;;;;;;11.63;2.28;;;15.60;99.90;;;;;;5012418;28;20231;-62
2023/06/02 08:33:09;;;;;;;8.45;2.40;;;15.60;99.90;;;;;;5026252;28;20210;-64
2023/06/02 08:35:40;;;;;;;8.80;2.17;;;15.50;99.90;;;;;;5030268;28;20273;-64
2023/06/02 08:38:07;;;;;;;11.27;2.28;;;15.60;99.90;;;;;;5030835;28;20264;-64
2023/06/02 08:40:38;;;;;;;14.93;2.20;;;15.60;99.90;;;;;;5030496;28;20174;-65
2023/06/02 08:43:13;;;;;;;11.48;2.63;;;15.70;99.90;;;;;;5030342;28;20178;-65
2023/06/02 08:45:43;;;;;;;13.90;3.20;;;15.60;99.90;;;;;;5030711;28;20173;-65
2023/06/02 08:48:13;;;;;;;16.13;2.85;;;16.10;99.90;;;;;;5030963;28;20224;-65
2023/06/02 08:50:42;;;;;;;11.88;2.90;;;16.70;99.90;;;;;;5032176;28;20181;-65
2023/06/02 08:53:13;;;;;;;16.95;2.47;;;16.90;99.90;;;;;;5032765;28;20243;-65
2023/06/02 08:55:41;;;;;;;9.63;2.63;;;17.50;99.90;;;;;;5030985;28;20268;-65
2023/06/02 08:58:10;;;;;;;11.45;2.58;;;17.60;99.90;;;;;;5034338;28;20189;-65
2023/06/02 09:00:40;;;;;;;9.88;2.35;;;17.60;99.90;;;;;;5034961;28;20170;-65
2023/06/02 09:03:06;;;;;;;11.23;2.55;;;17.60;99.90;;;;;;5022317;28;20175;-63
2023/06/02 09:05:32;;;;;;;7.45;2.38;;;17.80;99.90;;;;;;5033140;28;20644;-64
2023/06/02 09:08:11;;;;;;;18.45;2.78;;;18.00;99.90;;;;;;5032501;28;20704;-65
2023/06/02 09:10:41;;;;;;;9.60;2.35;;;18.00;99.90;;;;;;5033423;28;20182;-65
2023/06/02 09:13:27;;;;;;;9.63;2.45;;;17.70;99.90;;;;;;5020526;28;20217;-65
2023/06/02 09:16:03;;;;;;;8.20;1.88;;;17.50;99.90;;;;;;5033909;28;20170;-66
2023/06/02 09:18:29;;;;;;;9.45;2.13;;;17.00;99.90;;;;;;5014286;28;20182;-66
2023/06/02 09:20:59;;;;;;;11.40;2.28;;;17.00;99.90;;;;;;5014437;28;20171;-65
2023/06/02 09:23:45;;;;;;;8.98;2.47;;;17.10;99.90;;;;;;5014473;28;20182;-64
2023/06/02 09:26:29;;;;;;;9.02;2.70;;;17.10;99.90;;;;;;5027751;28;20181;-66
2023/06/02 09:29:13;;;;;;;7.85;2.20;;;17.90;99.90;;;;;;5033595;28;20299;-65
2023/06/02 09:31:43;;;;;;;8.63;2.20;;;18.00;99.90;;;;;;5033622;28;20678;-65
2023/06/02 09:34:08;;;;;;;10.57;2.50;;;17.60;99.90;;;;;;5034057;28;20182;-65
2023/06/02 09:36:34;;;;;;;8.48;2.53;;;17.60;99.90;;;;;;5033554;28;20181;-66
2023/06/02 09:39:01;;;;;;;7.47;2.15;;;17.60;99.90;;;;;;5032493;28;20647;-65
2023/06/02 09:41:28;;;;;;;10.10;2.53;;;17.90;99.90;;;;;;5015619;28;20221;-65
2023/06/02 09:43:56;;;;;;;11.48;2.13;;;18.00;99.90;;;;;;5030927;28;20197;-65
2023/06/02 09:46:23;;;;;;;8.45;1.90;;;18.00;99.90;;;;;;5029727;28;20178;-65
2023/06/02 09:48:56;;;;;;;8.15;2.28;;;18.70;99.90;;;;;;5013734;28;20271;-64
2023/06/02 09:51:26;;;;;;;9.77;2.20;;;18.70;99.90;;;;;;5014357;28;20249;-64
2023/06/02 09:53:52;;;;;;;11.48;2.33;;;19.20;99.90;;;;;;5014200;28;20270;-66
2023/06/02 09:56:22;;;;;;;13.93;2.28;;;19.20;99.90;;;;;;5013940;28;20225;-67
2023/06/02 09:58:48;;;;;;;6.10;2.03;;;19.20;99.90;;;;;;5013699;28;20539;-65
2023/06/02 10:01:15;;;;;;;9.30;2.20;;;19.20;99.90;;;;;;5013460;28;20647;-65
2023/06/02 10:03:44;;;;;;;11.50;2.13;;;19.20;99.90;;;;;;5012560;28;20635;-65
2023/06/02 10:06:46;;;;;;;8.90;2.13;;;19.10;99.90;;;;;;5013684;28;20547;-64
2023/06/02 10:09:32;;;;;;;10.40;2.40;;;19.20;99.90;;;;;;5013367;28;20297;-65
2023/06/02 10:12:23;;;;;;;9.75;2.63;;;19.20;99.90;;;;;;5025989;28;20256;-65
2023/06/02 10:15:28;;;;;;;10.48;2.28;;;19.80;99.90;;;;;;5013608;28;20171;-64
2023/06/02 10:18:09;;;;;;;8.32;2.10;;;20.20;99.90;;;;;;5007091;28;20177;-65
2023/06/02 10:21:00;;;;;;;12.55;2.33;;;19.90;99.90;;;;;;5032453;28;20166;-65
2023/06/02 10:24:09;;;;;;;8.30;2.58;;;20.00;99.90;;;;;;5033307;28;20205;-65
2023/06/02 10:27:06;;;;;;;14.40;2.55;;;20.50;99.90;;;;;;4953094;29;20235;-66
2023/06/02 10:29:34;;;;;;;10.15;2.17;;;20.30;99.90;;;;;;5013346;28;20203;-65
2023/06/02 10:32:01;;;;;;;10.13;1.95;;;19.90;99.90;;;;;;4995522;28;20171;-64
2023/06/02 10:34:37;;;;;;;6.22;2.15;;;20.20;99.90;;;;;;5013757;28;20171;-66
2023/06/02 10:37:03;;;;;;;8.88;2.58;;;18.60;99.90;;;;;;5019163;28;20173;-65
2023/06/02 10:39:37;;;;;;;12.50;3.08;;;20.00;99.90;;;;;;5032256;28;20237;-66
2023/06/02 10:42:11;;;;;;;6.97;2.35;;;20.00;99.90;;;;;;5032333;28;20201;-65
2023/06/02 10:44:37;;;;;;;7.35;1.70;;;21.10;99.90;;;;;;5032405;28;20668;-65
2023/06/02 10:47:25;;;;;;;7.03;2.28;;;21.00;99.90;;;;;;5032222;28;20166;-66
2023/06/02 10:49:59;;;;;;;8.07;2.40;;;21.00;99.90;;;;;;5003160;28;20225;-65
2023/06/02 10:52:33;;;;;;;6.53;2.10;;;21.50;99.90;;;;;;5032407;28;20236;-65
2023/06/02 10:55:07;;;;;;;10.65;2.25;;;21.60;98.80;;;;;;5032204;28;20268;-66
2023/06/02 10:57:50;;;;;;;6.28;2.03;;;21.70;97.70;;;;;;5032025;28;20166;-66
2023/06/02 11:00:36;;;;;;;8.02;2.47;;;21.40;94.20;;;;;;5032281;28;20170;-65
2023/06/02 11:03:03;;;;;;;9.75;2.05;;;21.40;94.90;;;;;;5018109;28;20277;-64
2023/06/02 11:05:30;;;;;;;10.02;2.72;;;21.70;94.10;;;;;;5032066;28;20204;-64
2023/06/02 11:08:11;;;;;;;7.72;2.17;;;21.90;83.90;;;;;;5027624;28;20252;-64
2023/06/02 11:10:44;;;;;;;8.57;2.33;;;22.20;80.10;;;;;;5017497;28;20240;-63
2023/06/02 11:13:13;;;;;;;9.15;2.17;;;22.20;60.30;;;;;;5022925;28;20265;-65
2023/06/02 11:15:52;;;;;;;12.82;2.28;;;21.80;74.40;;;;;;5017228;28;20228;-64
2023/06/02 11:18:25;;;;;;;8.63;2.67;;;21.30;69.70;;;;;;5025687;28;20178;-64
2023/06/02 11:20:53;;;;;;;9.60;2.17;;;21.70;67.90;;;;;;5030266;28;20174;-65
2023/06/02 11:23:19;;;;;;;7.50;2.15;;;22.00;70.70;;;;;;5018663;28;20179;-66
2023/06/02 11:25:49;;;;;;;9.30;2.65;;;22.00;55.70;;;;;;5011734;28;20178;-64
2023/06/02 11:28:22;;;;;;;13.18;2.42;;;22.30;58.40;;;;;;5026761;28;20194;-64
2023/06/02 11:31:04;;;;;;;10.30;2.40;;;22.40;58.10;;;;;;5030687;28;20185;-65
2023/06/02 11:33:33;;;;;;;6.20;2.17;;;21.90;44.40;;;;;;5030538;28;20706;-65
2023/06/02 11:36:01;;;;;;;5.97;1.90;;;22.20;57.00;;;;;;5014035;28;20186;-66
2023/06/02 11:38:32;;;;;;;8.90;2.50;;;22.10;53.90;;;;;;5030572;28;20533;-65
2023/06/02 11:41:14;;;;;;;9.23;3.00;;;22.80;44.20;;;;;;5031852;28;20170;-66
2023/06/02 11:43:41;;;;;;;11.43;2.55;;;21.60;38.30;;;;;;5031573;28;20563;-66
2023/06/02 11:46:12;;;;;;;8.32;2.50;;;21.50;39.00;;;;;;5031170;28;20231;-65
2023/06/02 11:48:38;;;;;;;7.65;2.30;;;21.80;59.20;;;;;;5031546;28;20210;-65
2023/06/02 11:51:05;;;;;;;9.70;2.55;;;22.60;56.20;;;;;;5030645;28;20646;-65
2023/06/02 11:53:31;;;;;;;6.55;2.40;;;23.00;50.20;;;;;;5031569;28;20240;-65
2023/06/02 11:55:57;;;;;;;8.88;2.47;;;23.10;41.90;;;;;;5030978;28;20205;-65
2023/06/02 11:58:26;;;;;;;8.35;2.30;;;23.50;29.70;;;;;;5031740;28;20200;-64
2023/06/02 12:00:52;;;;;;;8.77;2.30;;;23.50;35.70;;;;;;5029130;28;20410;-65
2023/06/02 12:03:18;;;;;;;7.57;2.50;;;24.10;33.70;;;;;;5027824;28;20205;-65
2023/06/02 12:05:47;;;;;;;7.35;2.30;;;23.90;32.50;;;;;;5031087;28;20174;-65
2023/06/02 12:08:24;;;;;;;8.55;2.30;;;23.40;32.30;;;;;;5031019;28;20221;-64
2023/06/02 12:10:51;;;;;;;10.15;2.63;;;23.40;22.80;;;;;;5030207;28;20188;-66
2023/06/02 12:13:30;;;;;;;10.32;2.08;;;23.90;17.60;;;;;;5027193;28;20678;-65
2023/06/02 12:16:17;;;;;;;5.85;2.70;;;24.00;11.40;;;;;;5023942;28;20177;-66
2023/06/02 12:18:42;;;;;;;7.93;2.70;;;24.00;9.60;;;;;;5031012;28;20192;-65
2023/06/02 12:21:25;;;;;;;9.32;2.22;;;24.60;12.50;;;;;;5029919;28;20181;-66
2023/06/02 12:23:50;;;;;;;7.68;2.08;;;24.50;3.00;;;;;;5011766;28;20189;-66
2023/06/02 12:26:16;;;;;;;10.77;2.50;;;24.50;1.00;;;;;;5015303;28;20166;-64
2023/06/02 12:28:42;;;;;;;5.65;2.22;;;24.30;1.00;;;;;;5032331;28;20224;-65
2023/06/02 12:31:08;;;;;;;8.90;2.22;;;24.90;1.30;;;;;;5017000;28;20657;-66
2023/06/02 12:33:34;;;;;;;6.05;1.95;;;24.70;1.00;;;;;;5034401;28;20237;-65
2023/06/02 12:36:00;;;;;;;9.80;2.20;;;24.70;1.00;;;;;;5034758;28;20181;-64
2023/06/02 12:38:27;;;;;;;7.22;2.30;;;24.00;1.00;;;;;;5032540;28;20193;-64
2023/06/02 12:40:53;;;;;;;6.40;2.22;;;24.20;1.00;;;;;;5034580;28;20245;-65
2023/06/02 12:43:19;;;;;;;6.97;2.40;;;24.80;1.00;;;;;;5033874;28;20367;-65
2023/06/02 12:45:46;;;;;;;7.07;2.03;;;25.20;1.00;;;;;;5035110;28;20174;-65
2023/06/02 12:48:12;;;;;;;10.57;2.50;;;26.00;1.00;;;;;;5016687;28;20259;-65
2023/06/02 12:50:38;;;;;;;7.35;2.30;;;26.10;1.00;;;;;;5034447;28;20181;-65
2023/06/02 12:53:04;;;;;;;10.15;2.30;;;26.30;1.00;;;;;;5027498;28;20182;-64